Floral City, FL (34436)

1:07 PM EST on January 26, 2015 (GMT -0500)
KFLFLORA5 | Change Station
CLOSE
Current Station
Personal Weather Station
Location: Floral City, FL
Elevation: 118 ft
Nearby Weather Stations
Active Advisory: Lake Wind Advisory

Elev 118 ft 28.69 °N, 82.30 °W | Updated 2 minutes ago

Partly Cloudy
Partly Cloudy
62.8 °F
Feels Like 62.8 °F
N
13.0
Wind Variable Wind from North
Gusts 15.2 mph

Today
High -- | Low -- °F
--% Chance of Precip.
Yesterday
High -- | Low -- °F
Precip. -- in
7:20 AM 6:03 PM
Waxing Crescent, 45% visible
Pressure 29.91 in
Visibility 10.0 miles
Clouds Scattered Clouds 3800 ft
Dew Point 52 °F
Humidity 67%
Rainfall 0.12 in
Snow Depth Not available.
UV 6 out of 12
Pollen 6.00 out of 12
Air Quality Not available.
Flu Activity Not available.
METAR KINF 261755Z AUTO 29008G17KT 200V330 10SM SCT038 16/06 A2991 RMK AO2

More Conditions Fewer Conditions

Pressure 29.91 in
Visibility 10.0 miles
Clouds Scattered Clouds 3800 ft
Dew Point 52 °F
Humidity 67%
Rainfall 0.12 in
Snow Depth Not available.
UV 6 out of 12
Pollen 6.00 out of 12
Air Quality Not available.
Flu Activity Not available.
METAR KINF 261755Z AUTO 29008G17KT 200V330 10SM SCT038 16/06 A2991 RMK AO2

More Conditions Fewer Conditions

10-Day Weather Forecast

Almanac

Astronomy

Jan. 26, 2015 Rise Set
Actual Time
Civil Twilight
Nautical Twilight
Astronomical Twilight
Moon
Length of Visible Light
Length of Day
Tomorrow will be .
, % of the Moon is Illuminated

Today's Extremes

State Highs State Lows

Community

WunderPhotos

Upload Photos

1,790,304 photos uploaded!

WunderBlogs® & News

Nearby

Air Quality

  Air Quality AQ Index Pollutant
Not available.

Snow Depth

Station Depth Elevation

Earthquake Activity

City Distance Mag. Time & Date
Minimum magnitude displayed is 2.5.

Coastal Water Temperatures

Place Temperature

Nearby Weather Stations